ACA0605 CYQX-CYYT
Flight info
| Callsign | ACA0605 |
|---|---|
| Flight time | 0h 25m |
| Altitude | 20000 |
| Route | AVALN5 |
| Aircraft | A321/M-SDE3FGHIRWY/LB1 |
Departure
| Time | 2026-05-06 16:52 |
|---|---|
| Airport | Gander International Airport (CYQX) |
Arrival
| Time | 2026-05-06 17:17 |
|---|---|
| Airport | St. John's International Airport (CYYT) |
| Time | Latitude | Longitude | Altitude | Speed | Heading |
|---|---|---|---|---|---|
| 2026-05-06 16:34 | 48.94763 | -54.57624 | 505 ft | 0 kts | 334° |
| 2026-05-06 16:48 | 48.94768 | -54.57627 | 505 ft | 1 kts | 334° |
| 2026-05-06 16:48 | 48.94780 | -54.57633 | 505 ft | 1 kts | 10° |
| 2026-05-06 16:48 | 48.94788 | -54.57615 | 505 ft | 3 kts | 58° |
| 2026-05-06 16:49 | 48.94830 | -54.57570 | 505 ft | 11 kts | 17° |
| 2026-05-06 16:49 | 48.94896 | -54.57583 | 505 ft | 8 kts | 260° |
| 2026-05-06 16:49 | 48.94923 | -54.57658 | 505 ft | 8 kts | 283° |
| 2026-05-06 16:49 | 48.94933 | -54.57750 | 505 ft | 9 kts | 276° |
| 2026-05-06 16:50 | 48.94948 | -54.57880 | 505 ft | 14 kts | 287° |
| 2026-05-06 16:50 | 48.94982 | -54.58045 | 505 ft | 18 kts | 287° |
| 2026-05-06 16:50 | 48.95009 | -54.58172 | 505 ft | 6 kts | 287° |
| 2026-05-06 16:50 | 48.95027 | -54.58256 | 505 ft | 10 kts | 287° |
| 2026-05-06 16:51 | 48.95055 | -54.58382 | 505 ft | 14 kts | 290° |
| 2026-05-06 16:51 | 48.95130 | -54.58505 | 505 ft | 17 kts | 330° |
| 2026-05-06 16:51 | 48.95238 | -54.58572 | 505 ft | 16 kts | 2° |
| 2026-05-06 16:51 | 48.95294 | -54.58442 | 505 ft | 19 kts | 107° |
| 2026-05-06 16:52 | 48.95186 | -54.57960 | 505 ft | 85 kts | 110° |
| 2026-05-06 16:52 | 48.94934 | -54.56741 | 507 ft | 159 kts | 106° |
| 2026-05-06 16:52 | 48.94578 | -54.54950 | 996 ft | 186 kts | 116° |
| 2026-05-06 16:52 | 48.94036 | -54.53280 | 1605 ft | 173 kts | 140° |
| 2026-05-06 16:53 | 48.93048 | -54.52437 | 2231 ft | 164 kts | 168° |
| 2026-05-06 16:53 | 48.91924 | -54.51698 | 2890 ft | 194 kts | 153° |
| 2026-05-06 16:53 | 48.90793 | -54.50442 | 3785 ft | 215 kts | 145° |
| 2026-05-06 16:53 | 48.89617 | -54.48932 | 4696 ft | 234 kts | 143° |
| 2026-05-06 16:54 | 48.88333 | -54.47253 | 5611 ft | 254 kts | 143° |
| 2026-05-06 16:54 | 48.86959 | -54.45468 | 6497 ft | 273 kts | 142° |
| 2026-05-06 16:54 | 48.85495 | -54.43584 | 7412 ft | 284 kts | 142° |
| 2026-05-06 16:54 | 48.83973 | -54.41628 | 8305 ft | 292 kts | 141° |
| 2026-05-06 16:55 | 48.82403 | -54.39619 | 9245 ft | 298 kts | 141° |
| 2026-05-06 16:55 | 48.80827 | -54.37609 | 10199 ft | 303 kts | 141° |
| 2026-05-06 16:55 | 48.79207 | -54.35548 | 11151 ft | 307 kts | 140° |
| 2026-05-06 16:55 | 48.77563 | -54.33460 | 11961 ft | 317 kts | 141° |
| 2026-05-06 16:56 | 48.75819 | -54.31247 | 12520 ft | 334 kts | 141° |
| 2026-05-06 16:56 | 48.74003 | -54.28944 | 13004 ft | 353 kts | 141° |
| 2026-05-06 16:56 | 48.72054 | -54.26476 | 13460 ft | 372 kts | 141° |
| 2026-05-06 16:56 | 48.70028 | -54.23916 | 13846 ft | 388 kts | 141° |
| 2026-05-06 16:57 | 48.67897 | -54.21228 | 14098 ft | 403 kts | 141° |
| 2026-05-06 16:57 | 48.65710 | -54.18472 | 14334 ft | 416 kts | 141° |
| 2026-05-06 16:57 | 48.63461 | -54.15641 | 14557 ft | 429 kts | 141° |
| 2026-05-06 16:57 | 48.61146 | -54.12732 | 14764 ft | 440 kts | 141° |
| 2026-05-06 16:58 | 48.58767 | -54.09747 | 14998 ft | 450 kts | 141° |
| 2026-05-06 16:58 | 48.56358 | -54.06727 | 15078 ft | 452 kts | 141° |
| 2026-05-06 16:58 | 48.53949 | -54.03710 | 15082 ft | 451 kts | 141° |
| 2026-05-06 16:58 | 48.51512 | -54.00664 | 15084 ft | 451 kts | 141° |
| 2026-05-06 16:59 | 48.49104 | -53.97659 | 15085 ft | 451 kts | 141° |
| 2026-05-06 16:59 | 48.46675 | -53.94631 | 15085 ft | 451 kts | 141° |
| 2026-05-06 16:59 | 48.44276 | -53.91644 | 15085 ft | 451 kts | 141° |
| 2026-05-06 16:59 | 48.41848 | -53.88625 | 15085 ft | 451 kts | 141° |
| 2026-05-06 17:00 | 48.39417 | -53.85606 | 15085 ft | 451 kts | 141° |
| 2026-05-06 17:00 | 48.37012 | -53.82624 | 15085 ft | 451 kts | 141° |
| 2026-05-06 17:00 | 48.34580 | -53.79612 | 15085 ft | 451 kts | 141° |
| 2026-05-06 17:00 | 48.32168 | -53.76628 | 15085 ft | 451 kts | 141° |
| 2026-05-06 17:01 | 48.29745 | -53.73635 | 15086 ft | 452 kts | 141° |
| 2026-05-06 17:01 | 48.27313 | -53.70633 | 15089 ft | 452 kts | 141° |
| 2026-05-06 17:01 | 48.24896 | -53.67654 | 15096 ft | 452 kts | 141° |
| 2026-05-06 17:01 | 48.22466 | -53.64664 | 15106 ft | 452 kts | 141° |
| 2026-05-06 17:02 | 48.20008 | -53.61643 | 15118 ft | 452 kts | 141° |
| 2026-05-06 17:02 | 48.17600 | -53.58687 | 15132 ft | 452 kts | 141° |
| 2026-05-06 17:02 | 48.15155 | -53.55690 | 15147 ft | 452 kts | 141° |
| 2026-05-06 17:02 | 48.12735 | -53.52726 | 15162 ft | 452 kts | 141° |
| 2026-05-06 17:03 | 48.10276 | -53.49719 | 15178 ft | 452 kts | 141° |
| 2026-05-06 17:03 | 48.07868 | -53.46778 | 15190 ft | 452 kts | 141° |
| 2026-05-06 17:03 | 48.05421 | -53.43794 | 15199 ft | 452 kts | 141° |
| 2026-05-06 17:03 | 48.02995 | -53.40837 | 15205 ft | 452 kts | 141° |
| 2026-05-06 17:04 | 48.00541 | -53.37852 | 15209 ft | 452 kts | 141° |
| 2026-05-06 17:04 | 47.98094 | -53.34878 | 15212 ft | 452 kts | 142° |
| 2026-05-06 17:04 | 47.95656 | -53.31920 | 15213 ft | 452 kts | 142° |
| 2026-05-06 17:04 | 47.93227 | -53.28976 | 15214 ft | 452 kts | 142° |
| 2026-05-06 17:05 | 47.90794 | -53.26031 | 15214 ft | 452 kts | 142° |
| 2026-05-06 17:05 | 47.88343 | -53.23069 | 15214 ft | 452 kts | 142° |
| 2026-05-06 17:05 | 47.85907 | -53.20127 | 15215 ft | 452 kts | 142° |
| 2026-05-06 17:05 | 47.83481 | -53.17202 | 15215 ft | 452 kts | 142° |
| 2026-05-06 17:06 | 47.81020 | -53.14238 | 15215 ft | 452 kts | 142° |
| 2026-05-06 17:06 | 47.78579 | -53.11304 | 15215 ft | 452 kts | 142° |
| 2026-05-06 17:06 | 47.76132 | -53.08365 | 15214 ft | 445 kts | 142° |
| 2026-05-06 17:06 | 47.73834 | -53.05607 | 15139 ft | 410 kts | 142° |
| 2026-05-06 17:07 | 47.71667 | -53.03008 | 14347 ft | 395 kts | 142° |
| 2026-05-06 17:07 | 47.69727 | -53.00182 | 12836 ft | 399 kts | 125° |
| 2026-05-06 17:07 | 47.68673 | -52.96492 | 11570 ft | 390 kts | 99° |
| 2026-05-06 17:07 | 47.68745 | -52.92576 | 10540 ft | 373 kts | 74° |
| 2026-05-06 17:08 | 47.69464 | -52.88988 | 9740 ft | 357 kts | 71° |
| 2026-05-06 17:08 | 47.70064 | -52.85527 | 9047 ft | 344 kts | 77° |
| 2026-05-06 17:08 | 47.70440 | -52.82053 | 8393 ft | 331 kts | 82° |
| 2026-05-06 17:08 | 47.70660 | -52.78735 | 7841 ft | 318 kts | 85° |
| 2026-05-06 17:09 | 47.70811 | -52.75547 | 7327 ft | 307 kts | 86° |
| 2026-05-06 17:09 | 47.70950 | -52.72459 | 6890 ft | 294 kts | 86° |
| 2026-05-06 17:09 | 47.71088 | -52.69494 | 6489 ft | 282 kts | 86° |
| 2026-05-06 17:09 | 47.71223 | -52.66632 | 6076 ft | 273 kts | 87° |
| 2026-05-06 17:10 | 47.71354 | -52.63851 | 5567 ft | 269 kts | 87° |
| 2026-05-06 17:10 | 47.71482 | -52.61078 | 5107 ft | 264 kts | 87° |
| 2026-05-06 17:10 | 47.71608 | -52.58385 | 4812 ft | 258 kts | 88° |
| 2026-05-06 17:10 | 47.71727 | -52.55815 | 4761 ft | 245 kts | 88° |
| 2026-05-06 17:11 | 47.71828 | -52.53351 | 4521 ft | 247 kts | 92° |
| 2026-05-06 17:11 | 47.71426 | -52.50967 | 4148 ft | 237 kts | 130° |
| 2026-05-06 17:11 | 47.70190 | -52.49572 | 3843 ft | 218 kts | 171° |
| 2026-05-06 17:11 | 47.68767 | -52.49381 | 3702 ft | 200 kts | 184° |
| 2026-05-06 17:12 | 47.67387 | -52.49345 | 3410 ft | 194 kts | 183° |
| 2026-05-06 17:12 | 47.66067 | -52.49275 | 3134 ft | 188 kts | 182° |
| 2026-05-06 17:12 | 47.64832 | -52.49439 | 2971 ft | 168 kts | 205° |
| 2026-05-06 17:12 | 47.63971 | -52.50404 | 2959 ft | 145 kts | 232° |
| 2026-05-06 17:13 | 47.63589 | -52.51691 | 2940 ft | 132 kts | 256° |
| 2026-05-06 17:13 | 47.63497 | -52.53042 | 2990 ft | 132 kts | 259° |
| 2026-05-06 17:13 | 47.63429 | -52.54398 | 2988 ft | 133 kts | 260° |
| 2026-05-06 17:13 | 47.63366 | -52.55775 | 2978 ft | 130 kts | 258° |
| 2026-05-06 17:14 | 47.63306 | -52.57080 | 2731 ft | 128 kts | 259° |
| 2026-05-06 17:14 | 47.63241 | -52.58425 | 2344 ft | 133 kts | 261° |
| 2026-05-06 17:14 | 47.63197 | -52.59803 | 2011 ft | 133 kts | 260° |
| 2026-05-06 17:14 | 47.63153 | -52.61159 | 1762 ft | 130 kts | 259° |
| 2026-05-06 17:15 | 47.63097 | -52.62485 | 1766 ft | 127 kts | 258° |
| 2026-05-06 17:15 | 47.63033 | -52.63785 | 1736 ft | 127 kts | 258° |
| 2026-05-06 17:15 | 47.62963 | -52.65098 | 1679 ft | 126 kts | 256° |
| 2026-05-06 17:15 | 47.62896 | -52.66382 | 1590 ft | 126 kts | 257° |
| 2026-05-06 17:16 | 47.62833 | -52.67681 | 1383 ft | 126 kts | 256° |
| 2026-05-06 17:16 | 47.62769 | -52.68975 | 1124 ft | 126 kts | 258° |
| 2026-05-06 17:16 | 47.62706 | -52.70267 | 895 ft | 125 kts | 255° |
| 2026-05-06 17:16 | 47.62643 | -52.71547 | 729 ft | 126 kts | 257° |
| 2026-05-06 17:17 | 47.62592 | -52.72854 | 556 ft | 125 kts | 256° |
| 2026-05-06 17:17 | 47.62518 | -52.74138 | 437 ft | 122 kts | 255° |
| 2026-05-06 17:17 | 47.62456 | -52.75230 | 453 ft | 83 kts | 262° |
| 2026-05-06 17:17 | 47.62461 | -52.75855 | 477 ft | 43 kts | 266° |
| 2026-05-06 17:18 | 47.62419 | -52.76157 | 489 ft | 23 kts | 261° |
| 2026-05-06 17:18 | 47.62400 | -52.76384 | 491 ft | 22 kts | 263° |
| 2026-05-06 17:18 | 47.62382 | -52.76634 | 486 ft | 25 kts | 261° |
| 2026-05-06 17:18 | 47.62337 | -52.76898 | 478 ft | 24 kts | 237° |
| 2026-05-06 17:19 | 47.62358 | -52.77002 | 473 ft | 18 kts | 33° |
| 2026-05-06 17:19 | 47.62380 | -52.76846 | 478 ft | 13 kts | 87° |
| 2026-05-06 17:19 | 47.62383 | -52.76737 | 482 ft | 8 kts | 88° |
| 2026-05-06 17:19 | 47.62387 | -52.76625 | 485 ft | 23 kts | 86° |
| 2026-05-06 17:20 | 47.62400 | -52.76203 | 491 ft | 59 kts | 86° |
| 2026-05-06 17:20 | 47.62436 | -52.75541 | 463 ft | 67 kts | 88° |
| 2026-05-06 17:20 | 47.62472 | -52.74822 | 439 ft | 72 kts | 86° |
| 2026-05-06 17:20 | 47.62505 | -52.74102 | 418 ft | 46 kts | 84° |
| 2026-05-06 17:21 | 47.62483 | -52.73935 | 415 ft | 16 kts | 163° |
| 2026-05-06 17:21 | 47.62366 | -52.73920 | 417 ft | 16 kts | 178° |
| 2026-05-06 17:21 | 47.62250 | -52.73920 | 419 ft | 16 kts | 182° |
| 2026-05-06 17:21 | 47.62130 | -52.73911 | 420 ft | 18 kts | 174° |
| 2026-05-06 17:22 | 47.61992 | -52.73889 | 421 ft | 20 kts | 183° |
| 2026-05-06 17:22 | 47.61841 | -52.73877 | 423 ft | 24 kts | 173° |
| 2026-05-06 17:22 | 47.61646 | -52.73855 | 423 ft | 31 kts | 175° |
| 2026-05-06 17:22 | 47.61415 | -52.73830 | 427 ft | 34 kts | 174° |
| 2026-05-06 17:23 | 47.61263 | -52.73824 | 431 ft | 11 kts | 217° |
| 2026-05-06 17:23 | 47.61268 | -52.73909 | 434 ft | 8 kts | 300° |
| 2026-05-06 17:23 | 47.61308 | -52.73954 | 434 ft | 7 kts | 345° |
| 2026-05-06 17:23 | 47.61359 | -52.73985 | 434 ft | 7 kts | 318° |
| 2026-05-06 17:24 | 47.61375 | -52.74040 | 436 ft | 4 kts | 272° |
| 2026-05-06 17:24 | 47.61369 | -52.74057 | 437 ft | 0 kts | 223° |
| 2026-05-06 17:24 | 47.61363 | -52.74063 | 437 ft | 3 kts | 209° |
| 2026-05-06 17:24 | 47.61345 | -52.74085 | 438 ft | 2 kts | 235° |
| 2026-05-06 17:25 | 47.61341 | -52.74102 | 439 ft | 0 kts | 256° |
| 2026-05-06 17:25 | 47.61337 | -52.74134 | 440 ft | 5 kts | 263° |
| 2026-05-06 17:25 | 47.61335 | -52.74154 | 441 ft | 0 kts | 266° |
| 2026-05-06 17:25 | 47.61335 | -52.74169 | 442 ft | 0 kts | 264° |